CYTE

Cape Dorset Airport

Cape Dorset, Canada
METAR CYTE 152000Z AUTO 32014G19KT 270V350 9SM OVC014 08/06 A2939 RMK SLP956
Observed Flight Rules
Jul-15 @ 20:00 UTC (an hour ago) Marginal Visual Flight Rules
Wind Visibility Clouds
320° at 14 knots
 Gusting to 19 knots
9 miles
  • Overcast at 1,400' AGL
Temperatures Readings
Current 8°C / 46°F
Dewpoint 6°C / 43°F
Humidity 87%
Altimeter 29.39" Hg
Pressure 995.6 hPa
Elevation 47
METAR CYTE 152000Z AUTO 32014G19KT 270V350 9SM OVC014 08/06 A2939 RMK SLP956
Observed Flight Rules
Jul-15 @ 20:00 UTC
(an hour ago)
MVFR
Wind Visibility
320° at 14 knots
 Gusting to 19 knots
9 miles
Clouds
  • Overcast at 1,400' AGL
Temperature Dewpoint
8°C / 46°F 6°C / 43°F
Humidity Altimeter Pressure
87% 29.39" Hg 995.6 hPa